Time;durP1;ratioP1;P1;durP2;ratioP2;P2;SDS_P1;SDS_P2;PMS_P1;PMS_P2;Temp;Humidity;BMP_temperature;BMP_pressure;BME280_temperature;BME280_humidity;BME280_pressure;Samples;Min_cycle;Max_cycle;Signal;HPM_P1;HPM_P2
2022/01/24 00:01:37;;;;;;;39.08;15.30;;;;;;;-3.90;100.00;97039.72;4993014;28;20047;-74
2022/01/24 00:04:03;;;;;;;37.67;15.15;;;;;;;-3.88;100.00;97037.81;5003495;28;20046;-74
2022/01/24 00:06:31;;;;;;;41.47;15.50;;;;;;;-3.89;100.00;97036.22;4988679;28;20416;-74
2022/01/24 00:08:58;;;;;;;38.95;15.48;;;;;;;-3.98;100.00;97037.03;4995887;28;20516;-74
2022/01/24 00:11:29;;;;;;;40.88;16.15;;;;;;;-3.90;100.00;97034.59;4989110;28;20038;-74
2022/01/24 00:14:49;;;;;;;34.58;14.40;;;;;;;-3.95;100.00;97036.75;5004096;28;20046;-74
2022/01/24 00:27:23;;;;;;;40.63;15.75;;;;;;;-3.91;100.00;97043.25;4988101;28;20046;-74
2022/01/24 00:29:48;;;;;;;37.10;15.32;;;;;;;-4.01;100.00;97048.41;4988757;28;20096;-75
2022/01/24 00:32:14;;;;;;;43.67;16.42;;;;;;;-4.09;100.00;97040.59;4989286;28;20405;-75
2022/01/24 00:34:40;;;;;;;38.00;15.07;;;;;;;-4.03;100.00;97043.41;4987923;28;20046;-75
2022/01/24 00:37:06;;;;;;;40.58;15.23;;;;;;;-4.01;100.00;97038.97;4988797;28;20046;-75
2022/01/24 00:39:32;;;;;;;38.72;15.05;;;;;;;-3.90;100.00;97039.72;4987955;28;20117;-75
2022/01/24 00:45:03;;;;;;;35.67;14.80;;;;;;;-4.04;100.00;97028.13;4971731;28;20058;-75
2022/01/24 00:47:39;;;;;;;41.88;16.45;;;;;;;-4.16;100.00;97032.63;4988007;28;20755;-75
2022/01/24 00:55:21;;;;;;;39.53;15.07;;;;;;;-3.97;100.00;97033.53;4992189;28;20057;-75
2022/01/24 00:57:47;;;;;;;35.60;14.90;;;;;;;-3.97;100.00;97028.38;4993640;28;20386;-75
2022/01/24 01:00:13;;;;;;;40.20;15.98;;;;;;;-4.05;100.00;97026.50;4992294;28;20053;-75
2022/01/24 01:02:38;;;;;;;39.75;14.80;;;;;;;-3.84;100.00;97023.72;4987202;28;20042;-75
2022/01/24 01:05:21;;;;;;;36.95;14.73;;;;;;;-3.75;100.00;97012.59;5000234;28;20480;-75
2022/01/24 01:07:57;;;;;;;41.05;15.07;;;;;;;-3.76;100.00;97012.75;4989014;28;20408;-75
2022/01/24 01:18:36;;;;;;;44.27;15.77;;;;;;;-4.05;100.00;97005.91;4989575;28;20038;-76
2022/01/24 01:23:30;;;;;;;32.67;13.75;;;;;;;-3.85;100.00;97006.66;4991640;28;20047;-75
2022/01/24 01:25:58;;;;;;;38.13;15.18;;;;;;;-3.86;100.00;97005.06;4992007;28;20046;-75
2022/01/24 01:28:25;;;;;;;35.85;14.70;;;;;;;-3.83;100.00;97012.50;4992183;28;20046;-76
2022/01/24 01:30:54;;;;;;;38.53;14.93;;;;;;;-3.82;100.00;97008.97;4991485;28;20049;-75
2022/01/24 01:36:18;;;;;;;41.40;16.15;;;;;;;-3.84;100.00;97005.72;4991660;28;20085;-75
2022/01/24 01:39:32;;;;;;;35.35;14.23;;;;;;;-3.93;100.00;96993.72;4990885;28;20516;-76
2022/01/24 01:53:23;;;;;;;38.45;14.45;;;;;;;-4.33;100.00;96987.06;4992917;28;20423;-75
2022/01/24 01:58:02;;;;;;;;;;;;;;;-4.16;100.00;96983.78;4997916;28;20039;-75
2022/01/24 02:00:28;;;;;;;32.80;12.95;;;;;;;-4.23;100.00;96987.84;4991781;28;19967;-76
2022/01/24 02:02:53;;;;;;;34.92;13.88;;;;;;;-4.18;100.00;96977.94;4992395;28;20125;-75
2022/01/24 02:05:20;;;;;;;36.00;13.63;;;;;;;-4.24;100.00;96986.22;4993507;28;20049;-75
2022/01/24 02:07:51;;;;;;;34.15;13.45;;;;;;;-4.38;100.00;96995.22;4992374;28;20042;-76
2022/01/24 02:10:19;;;;;;;36.88;13.65;;;;;;;-4.44;100.00;96994.00;4989234;28;20109;-75
2022/01/24 02:12:47;;;;;;;36.90;14.45;;;;;;;-4.68;100.00;96988.47;4992315;28;20084;-75
2022/01/24 02:15:18;;;;;;;40.45;14.95;;;;;;;-4.64;100.00;96989.81;4994036;28;20057;-75
2022/01/24 02:23:01;;;;;;;28.98;11.75;;;;;;;-4.42;100.00;96989.53;4991905;28;19983;-76
2022/01/24 02:25:29;;;;;;;31.25;12.48;;;;;;;-4.43;100.00;96977.63;4991009;28;20043;-76
2022/01/24 02:27:59;;;;;;;32.88;12.25;;;;;;;-4.39;100.00;96978.16;4991101;28;20061;-76
2022/01/24 02:30:43;;;;;;;29.75;12.85;;;;;;;-4.37;100.00;96968.53;4978730;28;20038;-76
2022/01/24 02:33:10;;;;;;;37.60;12.93;;;;;;;-4.40;100.00;96956.78;4991639;28;20054;-75
2022/01/24 02:35:36;;;;;;;30.35;12.00;;;;;;;-4.35;100.00;96953.81;4989456;28;20088;-76
2022/01/24 02:38:07;;;;;;;37.80;12.90;;;;;;;-4.28;100.00;96949.72;4991146;28;20523;-76
2022/01/24 02:40:33;;;;;;;34.60;13.55;;;;;;;-4.44;100.00;96939.22;4989262;28;20053;-75
2022/01/24 02:48:22;;;;;;;38.17;14.40;;;;;;;-4.65;100.00;96942.78;4988449;28;20038;-75
2022/01/24 02:48:47;;;;;;;28.95;12.25;;;;;;;-4.51;100.00;96946.69;4991141;28;20583;-76
2022/01/24 02:53:41;;;;;;;35.63;12.25;;;;;;;-4.29;100.00;96937.81;4991410;28;20069;-75
2022/01/24 02:56:07;;;;;;;29.38;12.18;;;;;;;-4.34;100.00;96934.84;4990081;28;20070;-76
2022/01/24 02:58:33;;;;;;;34.55;11.68;;;;;;;-4.40;100.00;96931.06;4990930;28;20097;-76
2022/01/24 03:00:59;;;;;;;35.80;12.90;;;;;;;-4.38;100.00;96924.03;4989918;28;20088;-76
2022/01/24 03:03:25;;;;;;;31.17;12.07;;;;;;;-4.40;100.00;96920.78;4990761;28;20050;-76
2022/01/24 03:05:51;;;;;;;33.53;12.27;;;;;;;-4.46;100.00;96916.22;4989264;28;20046;-76
2022/01/24 03:08:20;;;;;;;36.40;13.25;;;;;;;-4.41;100.00;96914.06;4991278;28;20046;-76
2022/01/24 03:10:46;;;;;;;32.40;13.25;;;;;;;-4.71;100.00;96915.09;4990078;28;20043;-76
2022/01/24 03:13:31;;;;;;;38.25;13.82;;;;;;;-4.86;100.00;96912.13;5006241;28;20101;-75
2022/01/24 03:15:57;;;;;;;27.38;11.07;;;;;;;-4.72;100.00;96916.81;4988859;28;20046;-76
2022/01/24 03:18:24;;;;;;;32.42;12.40;;;;;;;-4.61;100.00;96913.31;4989853;28;20089;-75
2022/01/24 03:20:50;;;;;;;31.55;12.27;;;;;;;-4.53;100.00;96915.16;4989453;28;20039;-76
2022/01/24 03:23:18;;;;;;;29.60;10.73;;;;;;;-4.67;100.00;96913.03;4990715;28;20134;-76
2022/01/24 03:25:44;;;;;;;35.45;12.23;;;;;;;-4.75;100.00;96913.75;4988648;28;20095;-76
2022/01/24 03:28:10;;;;;;;29.77;12.70;;;;;;;-4.72;100.00;96910.88;4990636;28;20057;-76
2022/01/24 03:30:38;;;;;;;32.65;11.23;;;;;;;-4.67;100.00;96910.47;4989029;28;20411;-76
2022/01/24 03:33:05;;;;;;;29.35;11.68;;;;;;;-4.57;100.00;96906.09;4989927;28;20053;-76
2022/01/24 03:35:53;;;;;;;34.65;11.45;;;;;;;-4.61;100.00;96907.34;4989892;28;20041;-76
2022/01/24 03:38:19;;;;;;;27.02;10.68;;;;;;;-4.60;100.00;96911.53;4989899;28;20046;-76
2022/01/24 03:40:44;;;;;;;32.60;11.93;;;;;;;-4.78;100.00;96907.13;4989607;28;20046;-76
2022/01/24 03:43:10;;;;;;;30.25;11.45;;;;;;;-4.74;100.00;96895.63;5004785;28;20050;-76
2022/01/24 03:45:40;;;;;;;30.63;11.30;;;;;;;-4.75;100.00;96894.00;4989372;28;20049;-76
2022/01/24 03:50:49;;;;;;;28.58;10.27;;;;;;;-4.79;100.00;96889.28;4989626;28;20100;-76
2022/01/24 03:53:15;;;;;;;29.58;11.23;;;;;;;-4.87;100.00;96887.38;4988833;28;20042;-76
2022/01/24 03:55:40;;;;;;;32.25;11.10;;;;;;;-5.03;100.00;96876.88;4989364;28;20069;-75
2022/01/24 03:58:06;;;;;;;31.55;11.50;;;;;;;-5.13;100.00;96882.03;4989990;28;20096;-76
2022/01/24 04:00:31;;;;;;;30.08;11.00;;;;;;;-5.03;100.00;96887.16;4987626;28;20042;-76
2022/01/24 04:02:57;;;;;;;35.03;12.43;;;;;;;-5.19;100.00;96878.25;4988967;28;20712;-76
2022/01/24 04:05:23;;;;;;;31.08;11.40;;;;;;;-5.06;100.00;96881.34;4989287;28;20038;-76
2022/01/24 04:07:49;;;;;;;28.30;10.70;;;;;;;-4.99;100.00;96883.38;4989654;28;20041;-76
2022/01/24 04:10:18;;;;;;;29.45;10.77;;;;;;;-5.05;100.00;96882.97;4987004;28;20085;-76
2022/01/24 04:12:44;;;;;;;29.95;10.95;;;;;;;-5.07;100.00;96879.72;5000204;28;20443;-76
2022/01/24 04:15:44;;;;;;;32.78;10.98;;;;;;;-5.00;100.00;96876.59;4995400;28;20051;-76
2022/01/24 04:18:13;;;;;;;28.20;11.27;;;;;;;-4.93;100.00;96882.81;4991181;28;20046;-75
2022/01/24 04:23:23;;;;;;;26.35;10.93;;;;;;;-5.00;100.00;96876.59;5006697;28;20475;-77
2022/01/24 04:25:48;;;;;;;28.20;10.88;;;;;;;-5.03;100.00;96876.88;4990927;28;20105;-76
2022/01/24 04:28:14;;;;;;;28.42;10.75;;;;;;;-5.02;100.00;96873.38;4989584;28;20042;-76
2022/01/24 04:30:40;;;;;;;27.30;10.85;;;;;;;-5.08;100.00;96875.53;5007550;28;20104;-77
2022/01/24 04:33:05;;;;;;;28.50;11.20;;;;;;;-5.12;100.00;96876.75;4994831;28;20054;-76
2022/01/24 04:35:31;;;;;;;29.00;10.80;;;;;;;-5.17;100.00;96876.38;4988619;28;20497;-76
2022/01/24 04:37:56;;;;;;;28.90;11.13;;;;;;;-5.06;100.00;96878.78;4988825;28;20077;-76
2022/01/24 04:40:24;;;;;;;27.92;10.18;;;;;;;-5.00;100.00;96886.88;4997912;28;20076;-76
2022/01/24 04:42:58;;;;;;;28.52;10.80;;;;;;;-5.11;100.00;96875.00;4988923;28;20046;-76
2022/01/24 04:53:10;;;;;;;32.35;11.10;;;;;;;-5.20;100.00;96879.22;5000461;28;20511;-76
2022/01/24 04:55:35;;;;;;;29.35;9.80;;;;;;;-5.30;100.00;96884.34;5000359;28;20050;-76
2022/01/24 04:58:01;;;;;;;26.30;9.93;;;;;;;-5.24;100.00;96883.00;4997801;28;20049;-76
2022/01/24 05:00:27;;;;;;;27.88;10.10;;;;;;;-5.26;100.00;96884.88;4994957;28;20038;-76
2022/01/24 05:02:52;;;;;;;33.03;11.43;;;;;;;-5.31;100.00;96876.78;4988055;28;20046;-76
2022/01/24 05:05:20;;;;;;;26.35;10.05;;;;;;;-5.31;100.00;96879.34;4987950;28;20138;-76
2022/01/24 05:07:48;;;;;;;26.15;10.10;;;;;;;-5.34;100.00;96880.44;4988734;28;20049;-76
2022/01/24 05:10:21;;;;;;;29.23;9.60;;;;;;;-5.38;100.00;96888.53;4988815;28;20500;-75
2022/01/24 05:23:35;;;;;;;28.80;9.60;;;;;;;-5.33;100.00;96891.50;4988734;28;20702;-75
2022/01/24 05:26:03;;;;;;;31.45;10.43;;;;;;;-5.30;100.00;96891.22;4987032;28;20038;-75
2022/01/24 05:28:30;;;;;;;27.80;9.88;;;;;;;-5.35;100.00;96893.41;4989448;28;20114;-76
2022/01/24 05:30:58;;;;;;;31.63;10.52;;;;;;;-5.43;100.00;96892.31;4988008;28;20075;-77
2022/01/24 05:33:24;;;;;;;27.65;10.18;;;;;;;-5.41;100.00;96898.09;4997330;28;20126;-76
2022/01/24 05:35:50;;;;;;;24.27;9.80;;;;;;;-5.44;100.00;96898.38;4995804;28;20121;-76
2022/01/24 05:38:16;;;;;;;27.50;9.65;;;;;;;-5.51;100.00;96902.44;4990982;28;20365;-76
2022/01/24 05:40:42;;;;;;;26.10;9.50;;;;;;;-5.41;100.00;96899.88;4991769;28;20045;-76
2022/01/24 05:43:07;;;;;;;27.95;10.55;;;;;;;-5.55;100.00;96908.75;4991931;28;20042;-76
2022/01/24 05:45:34;;;;;;;28.88;9.63;;;;;;;-5.48;100.00;96912.41;4991125;28;20047;-76
2022/01/24 05:48:00;;;;;;;25.45;9.82;;;;;;;-5.55;100.00;96913.91;4992331;28;20070;-76
2022/01/24 05:50:26;;;;;;;29.67;10.27;;;;;;;-5.47;100.00;96906.34;4991601;28;20038;-75
2022/01/24 05:52:52;;;;;;;26.35;9.70;;;;;;;-5.50;100.00;96911.75;4996664;28;20041;-76
2022/01/24 05:55:17;;;;;;;29.77;10.93;;;;;;;-5.54;100.00;96905.25;5007257;28;20042;-76
2022/01/24 05:57:43;;;;;;;28.38;10.13;;;;;;;-5.41;100.00;96903.25;4999821;28;20416;-75
2022/01/24 06:00:10;;;;;;;32.35;11.07;;;;;;;-5.31;100.00;96897.31;5005904;28;20053;-76
2022/01/24 06:02:36;;;;;;;34.03;11.70;;;;;;;-5.24;100.00;96901.75;4991435;28;20057;-76
2022/01/24 06:05:02;;;;;;;35.88;12.80;;;;;;;-5.11;100.00;96901.47;4991693;28;20062;-76
2022/01/24 06:07:27;;;;;;;35.67;12.27;;;;;;;-5.05;100.00;96905.25;4987742;28;20101;-76
2022/01/24 06:09:53;;;;;;;39.55;13.15;;;;;;;-4.96;100.00;96898.50;4991145;28;20035;-77
2022/01/24 06:12:18;;;;;;;43.58;15.25;;;;;;;-4.83;100.00;96899.00;4994760;28;20042;-77
2022/01/24 06:14:44;;;;;;;34.03;12.75;;;;;;;-4.75;100.00;96895.75;5002964;28;20392;-77
2022/01/24 06:17:10;;;;;;;45.45;12.43;;;;;;;-4.71;100.00;96892.78;4993898;28;20049;-76
2022/01/24 06:19:36;;;;;;;35.45;11.77;;;;;;;-4.61;100.00;96887.59;4980732;28;20038;-76
2022/01/24 06:22:02;;;;;;;42.17;14.10;;;;;;;-4.64;100.00;96892.19;4991200;28;20044;-75
2022/01/24 06:24:27;;;;;;;45.28;13.63;;;;;;;-4.70;100.00;96894.41;4991350;28;20416;-76
2022/01/24 06:26:53;;;;;;;46.88;14.45;;;;;;;-4.81;100.00;96902.25;4977514;28;20035;-77
2022/01/24 06:29:19;;;;;;;41.10;14.30;;;;;;;-4.94;100.00;96906.84;5004957;28;20069;-75
2022/01/24 06:31:44;;;;;;;40.28;13.45;;;;;;;-5.15;100.00;96907.81;4987791;28;20053;-76
2022/01/24 06:34:10;;;;;;;37.78;11.95;;;;;;;-5.22;100.00;96909.31;4991482;28;20042;-76
2022/01/24 06:36:36;;;;;;;41.17;12.63;;;;;;;-5.17;100.00;96912.31;4988028;28;20054;-75
2022/01/24 06:39:04;;;;;;;39.80;12.30;;;;;;;-5.12;100.00;96915.25;4989851;28;20035;-76
2022/01/24 06:41:33;;;;;;;48.33;13.35;;;;;;;-5.11;100.00;96916.88;4991965;28;20049;-76
2022/01/24 06:44:00;;;;;;;47.10;13.30;;;;;;;-4.90;100.00;96918.47;4989670;28;20042;-76
2022/01/24 06:46:26;;;;;;;44.45;13.73;;;;;;;-4.94;100.00;96922.25;4990833;28;20049;-76
2022/01/24 06:48:52;;;;;;;46.90;12.77;;;;;;;-5.09;100.00;96920.13;4991104;28;20412;-76
2022/01/24 06:51:19;;;;;;;45.40;14.35;;;;;;;-5.12;100.00;96925.53;4990846;28;20039;-76
2022/01/24 06:53:44;;;;;;;38.45;12.20;;;;;;;-5.19;100.00;96929.56;4990460;28;20042;-76
2022/01/24 06:56:10;;;;;;;39.92;12.38;;;;;;;-5.06;100.00;96930.13;4989506;28;20527;-76
2022/01/24 06:58:36;;;;;;;43.33;14.55;;;;;;;-5.17;100.00;96937.97;4990941;28;20046;-76
2022/01/24 07:01:03;;;;;;;47.25;14.75;;;;;;;-5.24;100.00;96942.03;4990842;28;20045;-76
2022/01/24 07:03:28;;;;;;;37.83;12.20;;;;;;;-5.05;100.00;96931.72;4990924;28;20533;-76
2022/01/24 07:05:54;;;;;;;39.17;12.40;;;;;;;-4.98;100.00;96944.06;4990485;28;20038;-76
2022/01/24 07:08:20;;;;;;;36.80;12.32;;;;;;;-4.92;100.00;96940.94;4990424;28;20042;-76
2022/01/24 07:10:45;;;;;;;47.85;14.15;;;;;;;-4.95;100.00;96947.13;4988161;28;20042;-76
2022/01/24 07:13:11;;;;;;;39.42;12.35;;;;;;;-4.83;100.00;96950.38;4990877;28;20050;-76
2022/01/24 07:15:47;;;;;;;35.33;12.23;;;;;;;-4.75;100.00;96947.13;4992272;28;20038;-76
2022/01/24 07:20:57;;;;;;;34.85;12.15;;;;;;;-4.63;100.00;96945.22;4989974;28;20096;-77
2022/01/24 07:23:24;;;;;;;39.78;13.43;;;;;;;-4.68;100.00;96948.19;4989560;28;20043;-77
2022/01/24 07:25:49;;;;;;;41.38;13.32;;;;;;;-4.62;100.00;96951.97;4990726;28;20077;-77
2022/01/24 07:28:16;;;;;;;49.15;14.73;;;;;;;-4.54;100.00;96949.50;4989395;28;20066;-76
2022/01/24 07:30:42;;;;;;;37.85;13.88;;;;;;;-4.27;100.00;96960.81;4983428;28;20043;-77
2022/01/24 07:33:08;;;;;;;39.80;12.98;;;;;;;-4.35;100.00;96949.47;4982806;28;20050;-76
2022/01/24 07:35:33;;;;;;;40.67;13.20;;;;;;;-4.22;100.00;96949.16;4971329;28;20432;-76
2022/01/24 07:37:59;;;;;;;40.17;12.73;;;;;;;-4.13;100.00;96955.22;4982834;28;20528;-77
2022/01/24 07:40:25;;;;;;;37.22;12.05;;;;;;;-4.00;100.00;96953.13;4992896;28;20124;-76
2022/01/24 07:42:57;;;;;;;39.20;12.63;;;;;;;-3.94;100.00;96961.22;4989035;28;20058;-76
2022/01/24 07:45:25;;;;;;;45.15;13.93;;;;;;;-3.81;100.00;96960.91;4989738;28;20309;-77
2022/01/24 07:47:53;;;;;;;39.50;13.90;;;;;;;-3.76;100.00;96969.81;4989898;28;20806;-77
2022/01/24 07:50:22;;;;;;;40.40;14.07;;;;;;;-3.70;100.00;96969.22;4989512;28;20073;-76
2022/01/24 07:52:48;;;;;;;42.05;14.55;;;;;;;-3.85;100.00;96970.66;4989749;28;20447;-76
2022/01/24 07:55:14;;;;;;;39.10;13.18;;;;;;;-3.87;100.00;96972.56;4989618;28;20046;-76
2022/01/24 07:57:39;;;;;;;37.85;13.65;;;;;;;-3.73;100.00;96972.09;4988932;28;20050;-75
2022/01/24 08:00:07;;;;;;;39.28;13.65;;;;;;;-3.63;100.00;96978.94;4995947;28;20519;-79
2022/01/24 08:02:33;;;;;;;41.00;14.30;;;;;;;-3.67;100.00;96974.09;4988728;28;20046;-78
2022/01/24 08:04:59;;;;;;;47.38;15.63;;;;;;;-3.48;100.00;96967.22;4986970;28;20113;-80
2022/01/24 08:07:24;;;;;;;38.67;13.52;;;;;;;-3.47;100.00;96968.84;4990703;28;20914;-78
2022/01/24 08:09:50;;;;;;;43.72;14.30;;;;;;;-3.53;100.00;96970.22;4990928;28;20057;-78
2022/01/24 08:12:17;;;;;;;37.97;13.80;;;;;;;-3.29;100.00;96965.47;4992118;28;20053;-78
2022/01/24 08:14:43;;;;;;;35.97;14.05;;;;;;;-3.32;100.00;96969.97;4991207;28;20042;-79
2022/01/24 08:17:08;;;;;;;42.60;14.95;;;;;;;-3.28;100.00;96965.31;4987261;28;20104;-79
2022/01/24 08:19:34;;;;;;;41.88;14.10;;;;;;;-3.15;100.00;96972.69;4989830;28;20624;-78
2022/01/24 08:22:00;;;;;;;37.33;14.23;;;;;;;-3.27;100.00;96974.69;4990188;28;20070;-79
2022/01/24 08:24:25;;;;;;;37.10;14.30;;;;;;;-3.09;100.00;96971.28;4989163;28;20042;-77
2022/01/24 08:26:51;;;;;;;42.78;15.38;;;;;;;-3.13;100.00;96981.09;4988771;28;20039;-79
2022/01/24 08:29:17;;;;;;;48.92;16.35;;;;;;;-3.10;100.00;96988.53;4990483;28;20042;-78
2022/01/24 08:31:42;;;;;;;39.95;14.70;;;;;;;-2.94;100.00;96984.47;4990978;28;20038;-80
2022/01/24 08:34:08;;;;;;;47.50;15.70;;;;;;;-2.85;100.00;96986.16;4990642;28;20505;-79
2022/01/24 08:36:34;;;;;;;37.65;14.70;;;;;;;-2.69;100.00;96978.56;4991811;28;20053;-79
2022/01/24 08:39:07;;;;;;;44.85;15.13;;;;;;;-2.69;100.00;96988.84;4990386;28;20039;-80
2022/01/24 08:44:21;;;;;;;41.13;15.15;;;;;;;-2.56;100.00;96982.53;4986424;28;20065;-78
2022/01/24 08:46:47;;;;;;;44.95;16.00;;;;;;;-2.37;100.00;96971.19;4989974;28;20046;-78
2022/01/24 08:49:14;;;;;;;44.33;15.27;;;;;;;-2.27;100.00;96983.06;4986275;28;20531;-78
2022/01/24 08:51:40;;;;;;;44.60;16.00;;;;;;;-2.18;100.00;96985.69;4991293;28;20042;-78
2022/01/24 08:54:07;;;;;;;45.15;15.30;;;;;;;-2.03;100.00;96984.13;4987656;28;20050;-79
2022/01/24 08:56:34;;;;;;;44.78;15.00;;;;;;;-2.21;100.00;96985.97;4992538;28;20042;-78
2022/01/24 08:59:00;;;;;;;48.08;16.48;;;;;;;-2.35;100.00;96985.56;4998995;28;20126;-77
2022/01/24 09:01:26;;;;;;;51.85;16.15;;;;;;;-2.22;100.00;96984.38;4989732;28;20484;-77
2022/01/24 09:03:51;;;;;;;46.53;14.98;;;;;;;-2.16;100.00;96988.91;4989757;28;20053;-77
2022/01/24 09:06:18;;;;;;;46.17;16.67;;;;;;;-2.02;100.00;96990.91;4984176;28;20038;-76
2022/01/24 09:08:45;;;;;;;50.63;16.10;;;;;;;-2.08;100.00;96991.53;4986625;28;20038;-75
2022/01/24 09:11:11;;;;;;;48.20;14.77;;;;;;;-1.82;100.00;96991.50;5004120;28;20042;-77
2022/01/24 09:13:37;;;;;;;43.17;15.35;;;;;;;-1.77;100.00;96991.03;4987224;28;20084;-76
2022/01/24 09:16:03;;;;;;;46.85;15.18;;;;;;;-1.65;100.00;96992.38;4987825;28;20039;-76
2022/01/24 09:18:30;;;;;;;48.50;15.55;;;;;;;-1.85;100.00;96996.16;4989923;28;20097;-76
2022/01/24 09:20:56;;;;;;;54.40;17.58;;;;;;;-1.82;100.00;97001.03;4993129;28;20060;-77
2022/01/24 09:23:22;;;;;;;50.05;16.25;;;;;;;-1.69;100.00;97006.56;4990945;28;20121;-75
2022/01/24 09:25:50;;;;;;;47.35;15.73;;;;;;;-1.86;100.00;97010.03;5006333;28;20077;-75
2022/01/24 09:28:16;;;;;;;46.63;16.08;;;;;;;-2.11;100.00;97002.16;4991989;28;20050;-75
2022/01/24 09:30:42;;;;;;;48.60;15.48;;;;;;;-1.82;100.00;97006.19;5003065;28;20515;-76
2022/01/24 09:33:11;;;;;;;44.95;16.50;;;;;;;-1.69;100.00;97005.75;4992093;28;20499;-76
2022/01/24 09:35:38;;;;;;;47.22;16.17;;;;;;;-1.50;100.00;97009.88;4979105;28;20514;-75
2022/01/24 09:38:05;;;;;;;41.83;14.10;;;;;;;-1.43;100.00;97011.66;4990892;28;20046;-73
2022/01/24 09:40:31;;;;;;;40.10;12.93;;;;;;;-1.45;100.00;97008.44;4991602;28;20042;-74
2022/01/24 09:42:58;;;;;;;45.92;14.90;;;;;;;-1.40;100.00;97015.72;5002392;28;20046;-74
2022/01/24 09:45:24;;;;;;;43.97;15.05;;;;;;;-1.63;100.00;97016.25;4988973;28;20054;-75
2022/01/24 09:47:52;;;;;;;53.78;16.33;;;;;;;-1.88;100.00;97022.25;4993288;28;20053;-75
2022/01/24 09:50:18;;;;;;;59.35;17.10;;;;;;;-1.98;100.00;97018.03;4991539;28;20039;-75
2022/01/24 09:52:45;;;;;;;56.55;17.05;;;;;;;-1.97;100.00;97019.66;4990944;28;20121;-75
2022/01/24 09:55:12;;;;;;;59.72;17.05;;;;;;;-1.78;100.00;97016.03;4991747;28;20046;-75
2022/01/24 09:57:37;;;;;;;58.47;17.00;;;;;;;-1.85;100.00;97016.78;4989313;28;20504;-75
2022/01/24 10:00:07;;;;;;;48.58;14.38;;;;;;;-1.61;100.00;97016.94;4992608;28;20101;-75
2022/01/24 10:02:33;;;;;;;48.20;14.55;;;;;;;-1.43;100.00;97021.19;4996039;28;20062;-75
2022/01/24 10:05:18;;;;;;;47.58;15.77;;;;;;;-1.75;100.00;97017.50;5004879;28;20665;-75
2022/01/24 10:07:59;;;;;;;54.80;15.38;;;;;;;-1.77;100.00;97029.75;5003962;28;20039;-75
2022/01/24 10:10:35;;;;;;;50.85;16.00;;;;;;;-1.85;100.00;97027.13;4986896;28;20043;-76
2022/01/24 10:16:44;;;;;;;45.50;13.93;;;;;;;-1.55;100.00;97027.59;4990530;28;20046;-75
2022/01/24 10:19:16;;;;;;;40.55;13.30;;;;;;;-1.43;100.00;97026.34;4986401;28;20050;-75
2022/01/24 10:21:59;;;;;;;44.28;12.85;;;;;;;-1.29;100.00;97018.00;4989408;28;20049;-75
2022/01/24 10:24:43;;;;;;;36.10;12.40;;;;;;;-1.15;100.00;97023.53;4989761;28;20040;-75
2022/01/24 10:27:23;;;;;;;29.50;10.50;;;;;;;-0.96;100.00;97018.09;4979841;28;20038;-74
2022/01/24 10:30:03;;;;;;;32.03;11.10;;;;;;;-0.80;100.00;97016.50;4991191;28;20049;-74
2022/01/24 10:32:31;;;;;;;28.10;10.18;;;;;;;-0.76;100.00;97016.00;4990561;28;20054;-74
2022/01/24 10:35:35;;;;;;;39.92;13.43;;;;;;;-0.65;100.00;97012.28;4991329;28;20104;-74
2022/01/24 10:38:24;;;;;;;37.85;12.27;;;;;;;-0.44;100.00;97000.66;4989809;28;20053;-74
2022/01/24 10:41:07;;;;;;;33.50;11.80;;;;;;;-0.40;100.00;97005.34;4988923;28;20038;-74
2022/01/24 10:43:34;;;;;;;38.83;13.05;;;;;;;-0.58;100.00;96995.16;4990671;28;20499;-74
2022/01/24 10:46:00;;;;;;;34.38;12.25;;;;;;;-0.47;100.00;96995.81;4989470;28;20452;-74
2022/01/24 10:48:29;;;;;;;38.60;12.95;;;;;;;-0.53;100.00;96992.91;4990788;28;20042;-74
2022/01/24 10:51:12;;;;;;;41.42;13.90;;;;;;;-0.40;100.00;96991.63;4991788;28;20046;-75
2022/01/24 10:53:43;;;;;;;40.75;13.90;;;;;;;-0.59;100.00;96998.72;4989619;28;20034;-75
2022/01/24 10:56:33;;;;;;;39.20;13.60;;;;;;;-0.02;100.00;96989.28;4998414;28;20093;-75
2022/01/24 10:59:14;;;;;;;32.10;12.00;;;;;;;0.28;100.00;96994.69;4989146;28;20046;-74
2022/01/24 11:01:43;;;;;;;35.80;14.68;;;;;;;1.40;100.00;96994.38;4980904;28;20045;-73
2022/01/24 11:04:13;;;;;;;34.55;12.55;;;;;;;3.15;90.06;96985.25;4997259;28;20045;-74
2022/01/24 11:06:45;;;;;;;30.05;12.10;;;;;;;4.33;86.54;96980.28;4991951;28;20555;-74
2022/01/24 11:09:30;;;;;;;26.73;11.38;;;;;;;3.68;86.36;96971.06;4988751;28;20049;-74
2022/01/24 11:12:10;;;;;;;25.90;10.85;;;;;;;3.69;88.88;96972.69;4979044;28;20050;-74
2022/01/24 11:14:46;;;;;;;22.65;9.57;;;;;;;1.87;92.97;96977.75;4986791;28;20043;-76
2022/01/24 11:17:18;;;;;;;22.50;9.77;;;;;;;4.15;85.72;96972.19;4996436;28;20042;-76
2022/01/24 11:19:49;;;;;;;22.92;10.32;;;;;;;5.18;82.44;96960.91;5005032;28;20049;-76
2022/01/24 11:22:25;;;;;;;21.95;9.55;;;;;;;4.36;81.47;96965.28;4990634;28;20118;-76
2022/01/24 11:24:57;;;;;;;20.92;8.15;;;;;;;4.85;80.21;96957.22;4991018;28;20757;-75
2022/01/24 11:27:24;;;;;;;20.30;9.57;;;;;;;6.80;74.06;96957.03;4989817;28;20460;-76
2022/01/24 11:29:52;;;;;;;24.25;8.52;;;;;;;6.72;73.27;96955.44;4985204;28;20085;-73
2022/01/24 11:32:25;;;;;;;20.58;9.18;;;;;;;8.01;69.63;96949.06;4989362;28;20073;-74
2022/01/24 11:34:53;;;;;;;21.02;9.05;;;;;;;6.47;72.27;96958.75;4989189;28;20046;-73
2022/01/24 11:37:40;;;;;;;21.05;9.50;;;;;;;7.19;68.79;96952.56;4988313;28;20050;-72
2022/01/24 11:40:19;;;;;;;19.55;8.75;;;;;;;8.26;67.32;96943.75;4985534;28;20042;-72
2022/01/24 11:42:47;;;;;;;15.35;6.95;;;;;;;7.03;67.51;96952.03;4988643;28;20037;-74
2022/01/24 11:45:17;;;;;;;13.07;6.78;;;;;;;5.65;71.42;96951.28;4987941;28;20042;-73
2022/01/24 11:47:44;;;;;;;14.80;7.13;;;;;;;6.23;71.39;96957.63;4989440;28;20046;-72
2022/01/24 11:50:31;;;;;;;13.75;6.88;;;;;;;7.59;68.56;96949.66;4988667;28;20509;-73
2022/01/24 11:52:58;;;;;;;16.38;7.55;;;;;;;8.10;67.08;96935.47;4983421;28;20034;-73
2022/01/24 11:55:34;;;;;;;15.02;6.90;;;;;;;7.96;66.09;96934.00;4988401;28;20050;-73
2022/01/24 11:58:05;;;;;;;14.07;6.85;;;;;;;7.84;68.12;96935.72;4988646;28;20580;-73
2022/01/24 12:00:39;;;;;;;14.82;7.07;;;;;;;7.92;65.81;96930.19;4989138;28;20038;-73
2022/01/24 12:03:20;;;;;;;14.45;6.55;;;;;;;8.84;62.79;96929.34;4989660;28;20044;-74
2022/01/24 12:05:50;;;;;;;12.75;6.15;;;;;;;8.17;64.89;96924.09;4994140;28;20116;-73
2022/01/24 12:08:44;;;;;;;12.77;6.30;;;;;;;7.49;65.87;96925.75;4991053;28;20046;-74
2022/01/24 12:11:11;;;;;;;13.18;6.70;;;;;;;7.27;64.62;96926.91;4984111;28;20057;-73
2022/01/24 12:13:46;;;;;;;13.95;6.70;;;;;;;9.13;63.90;96922.47;4991698;28;20042;-74
2022/01/24 12:16:14;;;;;;;14.88;6.15;;;;;;;8.69;60.58;96924.47;4989404;28;20405;-75
2022/01/24 12:18:39;;;;;;;11.60;6.50;;;;;;;8.69;62.78;96932.34;4988791;28;20589;-74
2022/01/24 12:21:09;;;;;;;12.57;6.10;;;;;;;9.08;61.87;96914.47;4995682;28;20121;-74
2022/01/24 12:23:47;;;;;;;12.27;5.82;;;;;;;8.52;59.46;96913.00;4988971;28;20050;-74
2022/01/24 12:26:12;;;;;;;13.90;7.57;;;;;;;7.78;65.15;96906.72;4988754;28;20035;-74
2022/01/24 12:28:41;;;;;;;11.57;5.80;;;;;;;9.03;59.04;96911.72;4988665;28;20073;-75
2022/01/24 12:31:15;;;;;;;12.77;6.10;;;;;;;8.28;60.45;96915.50;4985291;28;20421;-75
2022/01/24 12:33:50;;;;;;;11.85;5.85;;;;;;;8.33;66.07;96913.00;4988364;28;20046;-77
2022/01/24 12:36:16;;;;;;;12.55;6.55;;;;;;;8.40;62.73;96907.69;4984648;28;20790;-72
2022/01/24 12:38:49;;;;;;;11.30;5.60;;;;;;;8.32;62.26;96911.41;4988735;28;20043;-73
2022/01/24 12:41:17;;;;;;;14.93;6.18;;;;;;;8.22;60.42;96911.13;4989281;28;20050;-71
2022/01/24 12:43:57;;;;;;;12.80;6.03;;;;;;;8.17;63.19;96908.34;4988487;28;20259;-73
2022/01/24 12:46:26;;;;;;;12.65;5.70;;;;;;;7.80;61.62;96901.25;4984547;28;20154;-72
2022/01/24 12:48:53;;;;;;;12.85;6.70;;;;;;;8.19;61.89;96906.31;4994531;28;20046;-74
2022/01/24 12:51:22;;;;;;;12.20;6.10;;;;;;;6.71;65.40;96907.56;4996079;28;20046;-74
2022/01/24 12:53:49;;;;;;;10.73;5.72;;;;;;;6.57;65.89;96898.97;4996176;28;20038;-74